Time;durP1;ratioP1;P1;durP2;ratioP2;P2;SDS_P1;SDS_P2;PMS_P1;PMS_P2;Temp;Humidity;BMP_temperature;BMP_pressure;BME280_temperature;BME280_humidity;BME280_pressure;Samples;Min_cycle;Max_cycle;Signal;HPM_P1;HPM_P2
2023/09/29 00:01:51;;;;;;;;;;;;;;;14.63;100.00;101496.72;4962594;28;20116;-91
2023/09/29 00:04:36;;;;;;;;;;;;;;;14.62;100.00;101495.00;4980516;28;20013;-89
2023/09/29 00:07:22;;;;;;;;;;;;;;;14.64;100.00;101482.44;4969130;28;19985;-92
2023/09/29 00:10:09;;;;;;;;;;;;;;;14.65;100.00;101484.16;4958713;28;20016;-89
2023/09/29 00:12:55;;;;;;;;;;;;;;;14.65;100.00;101489.50;4970821;28;19964;-91
2023/09/29 00:15:40;;;;;;;;;;;;;;;14.67;100.00;101482.31;4970721;28;19957;-90
2023/09/29 00:18:26;;;;;;;;;;;;;;;14.66;100.00;101486.75;4968806;28;19949;-90
2023/09/29 00:21:14;;;;;;;;;;;;;;;14.67;100.00;101482.31;4983538;28;19934;-91
2023/09/29 00:24:02;;;;;;;;;;;;;;;14.66;100.00;101491.25;4955346;28;19993;-91
2023/09/29 00:26:49;;;;;;;;;;;;;;;14.66;100.00;101493.91;4970355;28;20384;-91
2023/09/29 00:29:36;;;;;;;;;;;;;;;14.66;100.00;101485.91;4982660;28;20024;-90
2023/09/29 00:32:22;;;;;;;;;;;;;;;14.64;100.00;101486.00;4966301;28;20409;-92
2023/09/29 00:35:09;;;;;;;;;;;;;;;14.64;100.00;101482.44;4969349;28;20413;-90
2023/09/29 00:37:55;;;;;;;;;;;;;;;14.63;100.00;101480.72;4968413;28;19925;-90
2023/09/29 00:40:43;;;;;;;;;;;;;;;14.61;100.00;101477.28;4967924;28;19937;-90
2023/09/29 00:43:29;;;;;;;;;;;;;;;14.61;100.00;101469.31;4982810;28;19930;-91
2023/09/29 00:46:14;;;;;;;;;;;;;;;14.60;100.00;101470.25;4953424;28;19926;-91
2023/09/29 00:49:01;;;;;;;;;;;;;;;14.60;100.00;101470.25;4975705;28;20072;-91
2023/09/29 00:51:47;;;;;;;;;;;;;;;14.60;100.00;101475.56;4961173;28;20393;-91
2023/09/29 00:54:33;;;;;;;;;;;;;;;14.59;100.00;101463.19;4962477;28;19968;-91
2023/09/29 00:57:21;;;;;;;;;;;;;;;14.58;100.00;101461.44;4964864;28;19922;-90
2023/09/29 01:00:13;;;;;;;;;;;;;;;14.57;100.00;101455.28;4964006;28;19922;-91
2023/09/29 01:03:02;;;;;;;;;;;;;;;14.58;100.00;101445.47;4964208;28;19925;-90
2023/09/29 01:05:49;;;;;;;;;;;;;;;14.58;100.00;101441.00;4962196;28;19930;-90
2023/09/29 01:12:04;;;;;;;;;;;;;;;14.59;100.00;101431.22;4963980;28;19952;-91
2023/09/29 01:14:50;;;;;;;;;;;;;;;14.58;100.00;101432.16;4958516;28;19933;-90
2023/09/29 01:17:36;;;;;;;;;;;;;;;14.58;100.00;101418.81;4958732;28;19930;-90
2023/09/29 01:20:27;;;;;;;;;;;;;;;14.57;100.00;101419.78;4964509;28;19922;-89
2023/09/29 01:23:13;;;;;;;;;;;;;;;14.56;100.00;101416.25;4959573;28;19930;-91
2023/09/29 01:26:01;;;;;;;;;;;;;;;14.56;100.00;101426.91;4974925;28;19936;-91
2023/09/29 01:28:50;;;;;;;;;;;;;;;14.55;100.00;101422.53;4966501;28;19921;-89
2023/09/29 01:31:37;;;;;;;;;;;;;;;14.56;100.00;101420.72;4964952;28;19989;-90
2023/09/29 01:34:25;;;;;;;;;;;;;;;14.56;100.00;101415.38;4975209;28;19933;-90
2023/09/29 01:37:15;;;;;;;;;;;;;;;14.55;100.00;101416.34;4947310;28;19936;-91
2023/09/29 01:40:01;;;;;;;;;;;;;;;14.56;100.00;101415.38;4962859;28;19934;-90
2023/09/29 01:42:47;;;;;;;;;;;;;;;14.57;100.00;101427.75;4973214;28;19936;-91
2023/09/29 01:45:32;;;;;;;;;;;;;;;14.58;100.00;101427.69;4963518;28;19926;-90
2023/09/29 01:48:18;;;;;;;;;;;;;;;14.60;100.00;101428.47;4975348;28;19934;-90
2023/09/29 01:51:04;;;;;;;;;;;;;;;14.62;100.00;101417.72;4966345;28;19935;-90
2023/09/29 01:53:49;;;;;;;;;;;;;;;14.64;100.00;101414.03;4978040;28;19949;-91
2023/09/29 01:56:35;;;;;;;;;;;;;;;14.66;100.00;101419.31;4980357;28;19940;-90
2023/09/29 01:59:21;;;;;;;;;;;;;;;14.69;100.00;101415.56;4949163;28;19938;-91
2023/09/29 02:02:07;;;;;;;;;;;;;;;14.69;100.00;101397.81;4963680;28;19951;-90
2023/09/29 02:04:53;;;;;;;;;;;;;;;14.71;100.00;101398.56;4955819;28;19992;-90
2023/09/29 02:07:39;;;;;;;;;;;;;;;14.72;100.00;101394.97;4978719;28;19934;-89
2023/09/29 02:10:26;;;;;;;;;;;;;;;14.75;100.00;101396.63;4967316;28;20175;-90
2023/09/29 02:13:16;;;;;;;;;;;;;;;14.76;100.00;101385.91;4964390;28;19929;-91
2023/09/29 02:16:05;;;;;;;;;;;;;;;14.78;100.00;101383.16;4964369;28;19934;-89
2023/09/29 02:18:51;;;;;;;;;;;;;;;14.79;100.00;101383.06;4976594;28;21842;-88
2023/09/29 02:21:37;;;;;;;;;;;;;;;14.80;100.00;101374.13;4975712;28;19940;-90
2023/09/29 02:24:25;;;;;;;;;;;;;;;14.82;100.00;101375.84;4978300;28;19926;-90
2023/09/29 02:27:11;;;;;;;;;;;;;;;14.81;100.00;101366.97;4965773;28;20630;-90
2023/09/29 02:29:57;;;;;;;;;;;;;;;14.83;100.00;101380.22;4977175;28;20896;-90
2023/09/29 02:32:45;;;;;;;;;;;;;;;14.82;100.00;101371.34;4964131;28;19930;-89
2023/09/29 02:35:30;;;;;;;;;;;;;;;14.83;100.00;101372.22;4962507;28;19933;-90
2023/09/29 02:38:19;;;;;;;;;;;;;;;14.85;100.00;101367.66;4975826;28;19938;-89
2023/09/29 02:41:07;;;;;;;;;;;;;;;14.83;100.00;101357.13;4974717;28;20060;-89
2023/09/29 02:43:53;;;;;;;;;;;;;;;14.85;100.00;101346.34;4962624;28;20009;-90
2023/09/29 02:46:38;;;;;;;;;;;;;;;14.85;100.00;101341.88;4974339;28;19936;-90
2023/09/29 02:49:27;;;;;;;;;;;;;;;14.86;100.00;101340.94;4946528;28;19981;-91
2023/09/29 02:52:13;;;;;;;;;;;;;;;14.87;100.00;101334.66;4961397;28;19926;-90
2023/09/29 02:54:59;;;;;;;;;;;;;;;14.89;100.00;101327.44;4972963;28;19961;-90
2023/09/29 02:57:44;;;;;;;;;;;;;;;14.90;100.00;101318.50;4958565;28;20100;-90
2023/09/29 03:00:31;;;;;;;;;;;;;;;14.91;100.00;101306.03;4969572;28;19957;-91
2023/09/29 03:03:19;;;;;;;;;;;;;;;14.91;100.00;101295.34;4960796;28;19981;-91
2023/09/29 03:06:06;;;;;;;;;;;;;;;14.91;100.00;101304.22;4958076;28;19976;-90
2023/09/29 03:08:54;;;;;;;;;;;;;;;14.93;100.00;101320.16;4950495;28;20385;-89
2023/09/29 03:11:43;;;;;;;;;;;;;;;14.93;100.00;101309.47;4956028;28;19925;-90
2023/09/29 03:14:28;;;;;;;;;;;;;;;14.95;100.00;101307.56;4967059;28;19922;-89
2023/09/29 03:17:14;;;;;;;;;;;;;;;14.97;100.00;101302.16;4949897;28;19930;-89
2023/09/29 03:20:00;;;;;;;;;;;;;;;14.99;100.00;101301.09;4971595;28;19930;-90
2023/09/29 03:22:46;;;;;;;;;;;;;;;15.01;100.00;101299.22;4969951;28;19930;-91
2023/09/29 03:25:32;;;;;;;;;;;;;;;15.03;100.00;101297.34;4956697;28;19929;-91
2023/09/29 03:28:18;;;;;;;;;;;;;;;15.05;100.00;101298.09;4960046;28;19934;-91
2023/09/29 03:31:07;;;;;;;;;;;;;;;15.07;100.00;101296.22;4966055;28;19941;-89
2023/09/29 03:33:52;;;;;;;;;;;;;;;15.11;100.00;101283.56;4956567;28;19930;-90
2023/09/29 03:36:38;;;;;;;;;;;;;;;15.15;100.00;101289.59;4967971;28;20482;-90
2023/09/29 03:39:24;;;;;;;;;;;;;;;15.18;100.00;101281.38;4953067;28;19941;-90
2023/09/29 03:42:20;;;;;;;;;;;;;;;15.20;100.00;101282.19;4963026;28;20385;-90
2023/09/29 03:45:06;;;;;;;;;;;;;;;15.23;100.00;101284.66;4956716;28;20009;-91
2023/09/29 03:47:52;;;;;;;;;;;;;;;15.25;100.00;101271.25;4973655;28;19930;-90
2023/09/29 03:50:37;;;;;;;;;;;;;;;15.26;100.00;101273.78;4970315;28;19934;-88
2023/09/29 03:53:28;;;;;;;;;;;;;;;15.28;100.00;101269.25;4962394;28;20000;-89
2023/09/29 03:56:14;;;;;;;;;;;;;;;15.29;100.00;101265.63;4975690;28;20528;-90
2023/09/29 03:58:59;;;;;;;;;;;;;;;15.30;100.00;101259.34;4973851;28;19937;-91
2023/09/29 04:01:47;;;;;;;;;;;;;;;15.30;100.00;101259.34;4955554;28;19922;-91
2023/09/29 04:04:33;;;;;;;;;;;;;;;15.33;100.00;101259.19;4964288;28;20424;-91
2023/09/29 04:07:18;;;;;;;;;;;;;;;15.35;100.00;101251.06;4961034;28;19930;-89
2023/09/29 04:10:04;;;;;;;;;;;;;;;15.39;100.00;101251.75;4959051;28;19934;-85
2023/09/29 04:12:50;;;;;;;;;;;;;;;15.41;100.00;101258.69;4961830;28;20001;-89
2023/09/29 04:15:36;;;;;;;;;;;;;;;15.45;100.00;101254.03;4961888;28;19934;-87
2023/09/29 04:18:22;;;;;;;;;;;;;;;15.46;100.00;101253.97;4969393;28;19926;-89
2023/09/29 04:21:15;;;;;;;;;;;;;;;15.50;100.00;101262.63;4962166;28;19930;-90
2023/09/29 04:24:00;;;;;;;;;;;;;;;15.53;100.00;101251.75;4965596;28;20405;-90
2023/09/29 04:26:48;;;;;;;;;;;;;;;15.54;100.00;101248.19;4958130;28;19941;-89
2023/09/29 04:29:35;;;;;;;;;;;;;;;15.57;100.00;101241.78;4957807;28;19930;-89
2023/09/29 04:32:20;;;;;;;;;;;;;;;15.58;100.00;101241.69;4975674;28;20428;-90
2023/09/29 04:35:06;;;;;;;;;;;;;;;15.57;100.00;101221.28;4957900;28;19976;-90
2023/09/29 04:37:52;;;;;;;;;;;;;;;15.56;100.00;101232.03;4971606;28;20571;-90
2023/09/29 04:40:38;;;;;;;;;;;;;;;15.52;100.00;101234.03;4972899;28;19933;-89
2023/09/29 04:43:24;;;;;;;;;;;;;;;15.48;100.00;101228.03;4975588;28;20124;-88
2023/09/29 04:46:09;;;;;;;;;;;;;;;15.46;100.00;101226.41;4974030;28;19947;-89
2023/09/29 04:48:56;;;;;;;;;;;;;;;15.44;100.00;101223.84;4962787;28;19921;-89
2023/09/29 04:51:43;;;;;;;;;;;;;;;15.43;100.00;101216.78;4967987;28;19926;-91
2023/09/29 04:54:29;;;;;;;;;;;;;;;15.42;100.00;101223.06;4960505;28;19985;-89
2023/09/29 04:57:15;;;;;;;;;;;;;;;15.43;100.00;101224.78;4953975;28;20010;-90
2023/09/29 05:00:00;;;;;;;;;;;;;;;15.44;100.00;101220.31;4979876;28;19934;-89
2023/09/29 05:02:46;;;;;;;;;;;;;;;15.46;100.00;101221.06;4978794;28;19953;-89
2023/09/29 05:05:32;;;;;;;;;;;;;;;15.46;100.00;101218.41;4970328;28;19985;-90
2023/09/29 05:08:18;;;;;;;;;;;;;;;15.45;100.00;101216.69;4980770;28;19957;-90
2023/09/29 05:11:04;;;;;;;;;;;;;;;15.45;100.00;101214.91;4977381;28;19929;-90
2023/09/29 05:13:53;;;;;;;;;;;;;;;15.46;100.00;101210.41;4971175;28;19930;-89
2023/09/29 05:16:47;;;;;;;;;;;;;;;15.47;100.00;101217.44;4964402;28;19985;-87
2023/09/29 05:19:35;;;;;;;;;;;;;;;15.48;100.00;101213.84;4971184;28;20366;-88
2023/09/29 05:22:21;;;;;;;;;;;;;;;15.51;100.00;101216.31;4962643;28;20035;-89
2023/09/29 05:25:07;;;;;;;;;;;;;;;15.50;100.00;101209.28;4976713;28;19964;-87
2023/09/29 05:27:53;;;;;;;;;;;;;;;15.52;100.00;101210.03;4976198;28;20308;-84
2023/09/29 05:30:43;;;;;;;;;;;;;;;15.46;100.00;101218.41;4969785;28;19932;-85
2023/09/29 05:33:28;;;;;;;;;;;;;;;15.34;100.00;101204.88;4956025;28;20558;-81
2023/09/29 05:36:14;;;;;;;;;;;;;;;15.24;100.00;101209.03;4953456;28;19930;-81
2023/09/29 05:39:00;;;;;;;;;;;;;;;15.15;100.00;101210.41;4959452;28;20029;-83
2023/09/29 05:41:45;;;;;;;;;;;;;;;15.10;100.00;101217.84;4964189;28;19922;-83
2023/09/29 05:44:31;;;;;;;;;;;;;;;15.05;100.00;101211.94;4969615;28;19969;-83
2023/09/29 05:47:17;;;;;;;;;;;;;;;15.02;100.00;101210.28;4957107;28;19929;-81
2023/09/29 05:50:06;;;;;;;;;;;;;;;14.99;100.00;101210.47;4974787;28;19941;-82
2023/09/29 05:52:51;;;;;;;;;;;;;;;14.96;100.00;101210.66;4970606;28;20013;-82
2023/09/29 05:55:37;;;;;;;;;;;;;;;14.95;100.00;101208.94;4966716;28;20016;-83
2023/09/29 05:58:23;;;;;;;;;;;;;;;14.91;100.00;101207.38;4954248;28;19934;-84
2023/09/29 06:01:09;;;;;;;;;;;;;;;14.87;100.00;101204.03;4961417;28;19933;-83
2023/09/29 06:03:55;;;;;;;;;;;;;;;14.86;100.00;101206.81;4956338;28;19930;-84
2023/09/29 06:06:41;;;;;;;;;;;;;;;14.85;100.00;101210.41;4971678;28;19925;-83
2023/09/29 06:09:26;;;;;;;;;;;;;;;14.83;100.00;101205.19;4960187;28;19945;-83
2023/09/29 06:12:12;;;;;;;;;;;;;;;14.85;100.00;101207.75;4972535;28;20025;-82
2023/09/29 06:14:58;;;;;;;;;;;;;;;14.86;100.00;101204.16;4971433;28;20438;-83
2023/09/29 06:17:44;;;;;;;;;;;;;;;14.88;100.00;101215.56;4948267;28;19936;-83
2023/09/29 06:20:30;;;;;;;;;;;;;;;14.89;100.00;101215.50;4969603;28;20684;-84
2023/09/29 06:23:15;;;;;;;;;;;;;;;14.91;100.00;101208.25;4968476;28;19934;-83
2023/09/29 06:26:01;;;;;;;;;;;;;;;14.94;100.00;101217.91;4951585;28;19965;-84
2023/09/29 06:28:47;;;;;;;;;;;;;;;14.97;100.00;101211.53;4956097;28;19938;-84
2023/09/29 06:31:33;;;;;;;;;;;;;;;14.98;100.00;101214.06;4967206;28;19925;-85
2023/09/29 06:34:18;;;;;;;;;;;;;;;15.02;100.00;101212.97;4953953;28;19930;-85
2023/09/29 06:37:04;;;;;;;;;;;;;;;15.05;100.00;101214.59;4968058;28;19934;-84
2023/09/29 06:39:50;;;;;;;;;;;;;;;15.08;100.00;101219.72;4952151;28;19933;-83
2023/09/29 06:42:36;;;;;;;;;;;;;;;15.12;100.00;101223.94;4953505;28;19936;-85
2023/09/29 06:45:22;;;;;;;;;;;;;;;15.16;100.00;101219.28;4969461;28;19937;-85
2023/09/29 06:48:07;;;;;;;;;;;;;;;15.20;100.00;101218.19;4964687;28;19933;-83
2023/09/29 06:50:58;;;;;;;;;;;;;;;15.24;100.00;101225.03;4959123;28;20661;-85
2023/09/29 06:53:44;;;;;;;;;;;;;;;15.27;100.00;101214.19;4952280;28;19938;-85
2023/09/29 06:56:30;;;;;;;;;;;;;;;15.32;100.00;101213.91;4968944;28;19930;-84
2023/09/29 06:59:15;;;;;;;;;;;;;;;15.35;100.00;101224.38;4965390;28;19929;-83
2023/09/29 07:02:02;;;;;;;;;;;;;;;15.39;100.00;101227.72;4954571;28;20021;-84
2023/09/29 07:04:48;;;;;;;;;;;;;;;15.43;100.00;101221.28;4969017;28;19934;-86
2023/09/29 07:07:34;;;;;;;;;;;;;;;15.46;100.00;101218.41;4967140;28;19930;-85
2023/09/29 07:10:19;;;;;;;;;;;;;;;15.51;100.00;101224.31;4968698;28;19934;-83
2023/09/29 07:13:05;;;;;;;;;;;;;;;15.55;100.00;101217.88;4965913;28;20464;-83
2023/09/29 07:15:51;;;;;;;;;;;;;;;15.59;100.00;101208.72;4968384;28;19933;-84
2023/09/29 07:18:36;;;;;;;;;;;;;;;15.64;100.00;101210.25;4968426;28;20007;-83
2023/09/29 07:21:22;;;;;;;;;;;;;;;15.68;100.00;101211.78;4954557;28;19934;-83
2023/09/29 07:24:08;;;;;;;;;;;;;;;15.72;100.00;101218.63;4953236;28;22087;-82
2023/09/29 07:26:54;;;;;;;;;;;;;;;15.77;100.00;101221.00;4965792;28;20032;-86
2023/09/29 07:29:39;;;;;;;;;;;;;;;15.82;100.00;101222.47;4967035;28;19930;-78
2023/09/29 07:32:27;;;;;;;;;;;;;;;15.89;100.00;101226.47;4937946;28;20429;-78
2023/09/29 07:35:13;;;;;;;;;;;;;;;15.97;100.00;101225.16;4974690;28;20446;-85
2023/09/29 07:38:00;;;;;;;;;;;;;;;16.04;100.00;101231.84;4961165;28;19929;-87
2023/09/29 07:40:47;;;;;;;;;;;;;;;16.11;100.00;101229.63;4968509;28;20336;-85
2023/09/29 07:43:32;;;;;;;;;;;;;;;16.15;100.00;101228.50;4943069;28;20096;-85
2023/09/29 07:46:18;;;;;;;;;;;;;;;16.20;100.00;101225.53;4938705;28;20515;-84
2023/09/29 07:49:04;;;;;;;;;;;;;;;16.24;100.00;101243.94;4946682;28;19934;-86
2023/09/29 07:51:50;;;;;;;;;;;;;;;16.29;100.00;101232.97;4953399;28;20001;-81
2023/09/29 07:54:36;;;;;;;;;;;;;;;16.36;100.00;101234.28;4962826;28;19930;-82
2023/09/29 07:57:22;;;;;;;;;;;;;;;16.41;100.00;101240.19;4944615;28;20492;-84
2023/09/29 08:00:16;;;;;;;;;;;;;;;16.48;100.00;101229.97;4966472;28;19934;-84
2023/09/29 08:03:02;;;;;;;;;;;;;;;16.54;100.00;101234.91;4955414;28;20413;-85
2023/09/29 08:05:49;;;;;;;;;;;;;;;16.61;100.00;101226.50;4940887;28;19934;-86
2023/09/29 08:08:35;;;;;;;;;;;;;;;16.67;100.00;101232.28;4970255;28;21915;-86
2023/09/29 08:11:21;;;;;;;;;;;;;;;16.75;100.00;101238.94;4942204;28;19992;-86
2023/09/29 08:14:06;;;;;;;;;;;;;;;16.79;100.00;101235.97;4970580;28;19955;-86
2023/09/29 08:16:52;;;;;;;;;;;;;;;16.86;100.00;101241.78;4954865;28;20351;-85
2023/09/29 08:19:39;;;;;;;;;;;;;;;16.95;100.00;101237.66;4960853;28;19980;-86
2023/09/29 08:22:43;;;;;;;;;;;;;;;17.02;100.00;101235.44;4979421;28;19941;-86
2023/09/29 08:25:38;;;;;;;;;;;;;;;17.12;100.00;101241.03;4987709;28;19929;-87
2023/09/29 08:32:01;;;;;;;;;;;;;;;17.26;100.00;101245.47;4989249;22;19934;-87
2023/09/29 08:34:49;;;;;;;;;;;;;;;17.33;100.00;101244.94;4945098;28;19926;-87
2023/09/29 08:37:37;;;;;;;;;;;;;;;17.40;100.00;101241.84;4953682;28;19933;-86
2023/09/29 08:40:23;;;;;;;;;;;;;;;17.47;100.00;101241.34;4960909;28;20028;-86
2023/09/29 08:43:13;;;;;;;;;;;;;;;17.55;100.00;101240.81;4944223;28;19933;-88
2023/09/29 08:45:59;;;;;;;;;;;;;;;17.65;100.00;101232.97;4956753;28;19930;-86
2023/09/29 08:48:52;;;;;;;;;;;;;;;17.76;100.00;101240.28;4962389;28;19993;-86
2023/09/29 08:51:46;;;;;;;;;;;;;;;17.86;100.00;101248.53;4942386;28;19926;-87
2023/09/29 08:54:35;;;;;;;;;;;;;;;17.96;100.00;101252.25;4935084;28;19965;-87
2023/09/29 08:57:20;;;;;;;;;;;;;;;18.05;100.00;101248.97;4955420;28;19953;-88
2023/09/29 09:00:06;;;;;;;;;;;;;;;18.14;100.00;101254.66;4942435;28;19934;-87
2023/09/29 09:02:52;;;;;;;;;;;;;;;18.19;100.00;101255.16;4934700;28;19931;-88
2023/09/29 09:05:38;;;;;;;;;;;;;;;18.21;100.00;101253.25;4935870;28;20010;-87
2023/09/29 09:08:24;;;;;;;;;;;;;;;18.25;100.00;101254.72;4935055;28;19934;-87
2023/09/29 09:11:14;;;;;;;;;;;;;;;18.31;100.00;101262.31;4927905;28;19930;-89
2023/09/29 09:14:03;;;;;;;;;;;;;;;18.40;100.00;101266.16;4935319;28;20005;-84
2023/09/29 09:16:50;;;;;;;;;;;;;;;18.54;100.00;101262.50;4927123;28;19931;-84
2023/09/29 09:19:45;;;;;;;;;;;;;;;18.66;100.00;101259.88;4932680;29;19957;-82
2023/09/29 09:22:38;;;;;;;;;;;;;;;18.73;100.00;101263.81;4943486;28;19942;-84
2023/09/29 09:25:44;;;;;;;;;;;;;;;18.77;100.00;101259.94;4952803;28;20356;-82
2023/09/29 09:28:34;;;;;;;;;;;;;;;18.81;100.00;101255.22;4927616;29;20399;-82
2023/09/29 09:31:23;;;;;;;;;;;;;;;18.86;100.00;101261.94;4941083;28;20032;-84
2023/09/29 09:34:09;;;;;;;;;;;;;;;18.90;100.00;101261.72;4923984;28;20028;-81
2023/09/29 09:36:55;;;;;;;;;;;;;;;18.90;100.00;101273.28;4940003;29;19930;-84
2023/09/29 09:39:49;;;;;;;;;;;;;;;18.91;100.00;101274.16;4949658;28;19934;-86
2023/09/29 09:42:35;;;;;;;;;;;;;;;18.90;100.00;101273.28;4942939;28;20405;-85
2023/09/29 09:45:26;;;;;;;;;;;;;;;18.87;100.00;101274.38;4941788;28;19930;-83
2023/09/29 09:48:16;;;;;;;;;;;;;;;18.84;100.00;101279.97;4957386;28;19930;-84
2023/09/29 09:51:03;;;;;;;;;;;;;;;18.82;100.00;101276.56;4960753;28;19949;-84
2023/09/29 09:53:52;;;;;;;;;;;;;;;18.85;100.00;101280.84;4953669;28;20021;-84
2023/09/29 09:57:04;;;;;;;;;;;;;;;18.90;100.00;101270.59;4931899;29;19928;-85
2023/09/29 09:59:49;;;;;;;;;;;;;;;19.00;100.00;101273.47;4946863;28;20377;-85
2023/09/29 10:02:39;;;;;;;;;;;;;;;19.11;100.00;101275.38;4940952;28;19931;-85
2023/09/29 10:05:30;;;;;;;;;;;;;;;19.25;100.00;101266.28;4929638;29;19922;-84
2023/09/29 10:08:38;;;;;;;;;;;;;;;19.38;100.00;101261.69;4942928;29;20898;-83
2023/09/29 10:11:26;;;;;;;;;;;;;;;19.44;100.00;101267.59;4935144;29;19980;-86
2023/09/29 10:14:12;;;;;;;;;;;;;;;19.45;100.00;101271.97;4950685;28;19926;-87
2023/09/29 10:17:01;;;;;;;;;;;;;;;19.51;100.00;101279.56;4958149;29;20161;-87
2023/09/29 10:20:08;;;;;;;;;;;;;;;19.56;100.00;101280.06;5106797;23;19933;-90
2023/09/29 10:23:06;;;;;;;;;;;;;;;19.60;100.00;101286.91;4961708;28;19930;-88
2023/09/29 10:25:58;;;;;;;;;;;;;;;19.57;100.00;101284.47;4970800;28;20658;-90
2023/09/29 10:28:46;;;;;;;;;;;;;;;19.52;100.00;101287.47;4953179;28;21678;-88
2023/09/29 10:31:48;;;;;;;;;;;;;;;19.48;100.00;101287.84;4977906;28;19948;-89
2023/09/29 10:34:37;;;;;;;;;;;;;;;19.41;100.00;101299.03;4975718;28;20025;-89
2023/09/29 10:37:26;;;;;;;;;;;;;;;19.37;100.00;101286.84;4971549;28;19929;-87
2023/09/29 10:40:28;;;;;;;;;;;;;;;19.38;100.00;101290.34;4981124;28;19940;-87
2023/09/29 10:43:17;;;;;;;;;;;;;;;19.41;100.00;101299.03;4975815;28;19936;-87
2023/09/29 10:46:06;;;;;;;;;;;;;;;19.44;100.00;101284.53;4975199;28;19929;-90
2023/09/29 10:48:54;;;;;;;;;;;;;;;19.47;100.00;101284.31;4976387;28;19934;-87
2023/09/29 10:51:43;;;;;;;;;;;;;;;19.49;100.00;101295.78;4957690;28;19926;-87
2023/09/29 10:54:31;;;;;;;;;;;;;;;19.51;100.00;101292.97;4959033;28;19942;-87
2023/09/29 10:57:19;;;;;;;;;;;;;;;19.56;100.00;101306.06;4959562;28;19926;-87
2023/09/29 11:00:05;;;;;;;;;;;;;;;19.60;100.00;101302.16;4954876;28;19972;-88
2023/09/29 11:02:52;;;;;;;;;;;;;;;19.65;100.00;101292.78;4967248;28;19977;-88
2023/09/29 11:05:51;;;;;;;;;;;;;;;19.67;100.00;101306.09;4966874;28;20569;-87
2023/09/29 11:08:49;;;;;;;;;;;;;;;19.71;100.00;101298.66;4968050;28;19957;-87
2023/09/29 11:11:42;;;;;;;;;;;;;;;19.67;100.00;101296.19;4978850;28;21798;-87
2023/09/29 11:14:38;;;;;;;;;;;;;;;19.67;100.00;101304.25;4944994;28;20649;-86
2023/09/29 11:17:24;;;;;;;;;;;;;;;19.67;100.00;101303.41;4968950;28;19944;-85
2023/09/29 11:20:15;;;;;;;;;;;;;;;19.66;100.00;101307.91;4966891;28;19930;-88
2023/09/29 11:23:11;;;;;;;;;;;;;;;19.66;100.00;101307.91;4967988;28;19936;-88
2023/09/29 11:26:04;;;;;;;;;;;;;;;19.62;100.00;101330.59;4959716;28;19985;-86
2023/09/29 11:28:51;;;;;;;;;;;;;;;19.43;100.00;101341.03;4959028;28;20476;-86
2023/09/29 11:31:37;;;;;;;;;;;;;;;19.05;100.00;101362.56;4967048;28;19934;-86
2023/09/29 11:34:23;;;;;;;;;;;;;;;18.71;100.00;101359.63;4971197;28;19934;-87
2023/09/29 11:37:08;;;;;;;;;;;;;;;18.32;100.00;101365.88;4973796;28;19972;-89
2023/09/29 11:39:56;;;;;;;;;;;;;;;17.87;100.00;101378.78;4969693;28;19934;-85
2023/09/29 11:42:44;;;;;;;;;;;;;;;17.51;100.00;101391.88;4969302;28;19930;-87
2023/09/29 11:45:29;;;;;;;;;;;;;;;17.25;100.00;101397.09;4959496;28;19929;-88
2023/09/29 11:48:15;;;;;;;;;;;;;;;17.10;100.00;101393.59;4971505;28;19929;-87
2023/09/29 11:51:03;;;;;;;;;;;;;;;16.92;100.00;101393.81;4971146;28;20622;-89
2023/09/29 11:53:49;;;;;;;;;;;;;;;16.80;100.00;101405.28;4955850;28;20040;-87
2023/09/29 11:56:35;;;;;;;;;;;;;;;16.68;100.00;101404.25;4955465;28;20064;-86
2023/09/29 11:59:21;;;;;;;;;;;;;;;16.64;100.00;101419.63;4973756;28;22057;-83
2023/09/29 12:02:06;;;;;;;;;;;;;;;16.47;100.00;101433.16;4961829;28;19965;-85
2023/09/29 12:04:52;;;;;;;;;;;;;;;16.24;100.00;101430.91;4978874;28;19987;-84
2023/09/29 12:07:37;;;;;;;;;;;;;;;16.06;100.00;101432.88;4962359;28;19926;-86
2023/09/29 12:10:23;;;;;;;;;;;;;;;15.94;100.00;101441.63;4973430;28;19936;-84
2023/09/29 12:13:15;;;;;;;;;;;;;;;15.85;100.00;101443.84;4975801;28;19930;-85
2023/09/29 12:16:01;;;;;;;;;;;;;;;15.79;100.00;101454.03;4961947;28;19926;-85
2023/09/29 12:18:47;;;;;;;;;;;;;;;15.78;100.00;101462.97;4958598;28;19933;-83
2023/09/29 12:21:33;;;;;;;;;;;;;;;15.80;100.00;101472.63;4971036;28;19940;-82
2023/09/29 12:24:19;;;;;;;;;;;;;;;15.81;100.00;101485.03;4970276;28;19933;-82
2023/09/29 12:27:06;;;;;;;;;;;;;;;15.80;100.00;101495.78;4973107;28;19925;-83
2023/09/29 12:29:51;;;;;;;;;;;;;;;15.71;100.00;101499.84;4973462;28;19949;-84
2023/09/29 12:32:37;;;;;;;;;;;;;;;15.61;100.00;101512.84;4972605;28;21886;-85
2023/09/29 12:35:22;;;;;;;;;;;;;;;15.58;100.00;101513.88;4956978;28;19957;-87
2023/09/29 12:38:08;;;;;;;;;;;;;;;15.63;100.00;101524.28;4959437;28;19965;-84
2023/09/29 12:40:54;;;;;;;;;;;;;;;15.70;100.00;101530.16;4960593;28;20400;-85
2023/09/29 12:43:39;;;;;;;;;;;;;;;15.73;100.00;101535.31;4954559;28;19932;-85
2023/09/29 12:46:25;;;;;;;;;;;;;;;15.70;100.00;101540.84;4955998;28;19930;-86
2023/09/29 12:49:11;;;;;;;;;;;;;;;15.68;100.00;101553.41;4959654;28;20006;-85
2023/09/29 12:51:56;;;;;;;;;;;;;;;15.70;100.00;101555.03;4957771;28;20478;-86
2023/09/29 12:54:42;;;;;;;;;;;;;;;15.72;100.00;101565.63;4970685;28;19989;-87
2023/09/29 12:57:28;;;;;;;;;;;;;;;15.73;100.00;101567.34;4949491;28;20148;-86
2023/09/29 13:00:22;;;;;;;;;;;;;;;15.76;100.00;101583.19;4959895;28;20530;-85
2023/09/29 13:03:08;;;;;;;;;;;;;;;15.80;100.00;101575.88;4958530;28;20199;-85
2023/09/29 13:05:58;;;;;;;;;;;;;;;15.88;100.00;101571.84;4971916;28;19930;-86
2023/09/29 13:08:44;;;;;;;;;;;;;;;15.97;100.00;101573.13;4976061;28;19930;-85
2023/09/29 13:11:29;;;;;;;;;;;;;;;16.06;100.00;101574.44;4969568;28;19937;-86
2023/09/29 13:14:15;;;;;;;;;;;;;;;16.12;100.00;101589.25;4981084;28;20986;-88
2023/09/29 13:17:04;;;;;;;;;;;;;;;16.15;100.00;101603.31;4973744;28;20389;-86
2023/09/29 13:19:50;;;;;;;;;;;;;;;16.20;100.00;101597.69;4946043;28;20602;-88
2023/09/29 13:22:35;;;;;;;;;;;;;;;16.23;100.00;101615.34;4971402;28;19937;-86
2023/09/29 13:25:21;;;;;;;;;;;;;;;16.24;100.00;101625.94;4970903;28;19976;-84
2023/09/29 13:28:07;;;;;;;;;;;;;;;16.27;100.00;101625.78;4976466;28;20044;-83
2023/09/29 13:30:54;;;;;;;;;;;;;;;16.28;100.00;101623.94;4953747;28;20019;-84
2023/09/29 13:33:39;;;;;;;;;;;;;;;16.26;100.00;101631.19;4965263;28;19934;-83
2023/09/29 13:36:25;;;;;;;;;;;;;;;16.24;100.00;101638.44;4964619;28;19932;-85
2023/09/29 13:39:11;;;;;;;;;;;;;;;16.19;100.00;101643.19;4945383;28;20009;-84
2023/09/29 13:41:57;;;;;;;;;;;;;;;16.15;100.00;101643.38;4960135;28;20193;-82
2023/09/29 13:44:42;;;;;;;;;;;;;;;16.17;100.00;101650.44;4962295;28;19930;-83
2023/09/29 13:47:28;;;;;;;;;;;;;;;16.21;100.00;101652.84;4963838;28;21610;-85
2023/09/29 13:50:13;;;;;;;;;;;;;;;16.27;100.00;101667.63;4961721;28;19992;-83
2023/09/29 13:52:59;;;;;;;;;;;;;;;16.32;100.00;101675.38;4961284;28;19936;-84
2023/09/29 13:55:45;;;;;;;;;;;;;;;16.36;100.00;101682.28;4965222;28;19934;-84
2023/09/29 13:58:33;;;;;;;;;;;;;;;16.37;100.00;101679.53;4951360;28;20946;-84
2023/09/29 14:01:19;;;;;;;;;;;;;;;16.39;100.00;101682.97;4955804;28;20329;-84
2023/09/29 14:04:06;;;;;;;;;;;;;;;16.41;100.00;101690.91;4961405;28;19953;-85
2023/09/29 14:06:52;;;;;;;;;;;;;;;16.45;100.00;101687.09;4972421;28;19925;-80
2023/09/29 14:09:38;;;;;;;;;;;;;;;16.55;100.00;101699.00;4956455;28;19930;-83
2023/09/29 14:12:23;;;;;;;;;;;;;;;16.65;100.00;101699.34;4959032;28;19936;-82
2023/09/29 14:15:09;;;;;;;;;;;;;;;16.74;100.00;101697.06;4969196;28;20274;-83
2023/09/29 14:17:55;;;;;;;;;;;;;;;16.82;100.00;101716.19;4948850;28;20625;-86